createdAt,value
2023-05-28T00:01:34.521Z,76.41
2023-05-28T00:04:07.663Z,75.97
2023-05-28T00:06:40.980Z,76.66
2023-05-28T00:09:14.086Z,76.36
2023-05-28T00:11:47.390Z,76.17
2023-05-28T00:14:21.155Z,76.40
2023-05-28T00:16:56.337Z,76.06
2023-05-28T00:19:29.607Z,75.92
2023-05-28T00:22:02.762Z,76.52
2023-05-28T00:24:36.262Z,76.83
2023-05-28T00:27:09.408Z,76.73
2023-05-28T00:29:44.696Z,76.33
2023-05-28T00:32:19.198Z,76.80
2023-05-28T00:34:52.291Z,77.12
2023-05-28T00:37:25.454Z,77.39
2023-05-28T00:39:58.613Z,77.91
2023-05-28T00:42:32.133Z,78.89
2023-05-28T00:45:06.238Z,78.08
2023-05-28T00:47:41.452Z,78.77
2023-05-28T00:50:17.803Z,78.36
2023-05-28T00:52:53.127Z,78.79
2023-05-28T00:55:26.842Z,78.79
2023-05-28T00:58:06.603Z,78.96
2023-05-28T01:00:40.610Z,79.28
2023-05-28T01:03:15.120Z,79.11
2023-05-28T01:05:48.590Z,79.23
2023-05-28T01:08:21.867Z,79.26
2023-05-28T01:10:55.112Z,79.35
2023-05-28T01:13:28.367Z,79.22
2023-05-28T01:20:14.933Z,79.85
2023-05-28T01:22:54.780Z,79.66
2023-05-28T01:25:30.059Z,79.86
2023-05-28T01:28:03.686Z,79.10
2023-05-28T01:30:36.765Z,79.17
2023-05-28T01:33:09.882Z,79.96
2023-05-28T01:35:43.582Z,79.88
2023-05-28T01:38:18.788Z,79.43
2023-05-28T01:40:56.039Z,79.58
2023-05-28T01:43:29.725Z,80.38
2023-05-28T01:46:03.710Z,80.28
2023-05-28T01:48:36.993Z,80.39
2023-05-28T01:51:10.065Z,79.76
2023-05-28T01:53:43.124Z,80.76
2023-05-28T01:56:17.848Z,79.88
2023-05-28T01:58:50.914Z,79.74
2023-05-28T02:01:33.514Z,79.97
2023-05-28T02:04:06.704Z,80.73
2023-05-28T02:06:42.250Z,80.78
2023-05-28T02:09:15.499Z,80.74
2023-05-28T02:11:50.390Z,81.96
2023-05-28T02:14:23.495Z,82.25
2023-05-28T02:16:56.560Z,81.27
2023-05-28T02:19:29.736Z,82.37
2023-05-28T02:22:02.890Z,82.88
2023-05-28T02:24:35.993Z,82.67
2023-05-28T02:27:10.979Z,83.05
2023-05-28T02:29:44.528Z,83.08
2023-05-28T02:32:17.619Z,83.03
2023-05-28T02:34:51.770Z,82.00
2023-05-28T02:37:25.514Z,81.84
2023-05-28T02:39:58.586Z,82.07
2023-05-28T02:42:33.057Z,82.17
2023-05-28T02:45:07.739Z,82.92
2023-05-28T02:47:41.137Z,82.65
2023-05-28T02:50:14.305Z,83.47
2023-05-28T02:52:47.399Z,83.39
2023-05-28T02:55:20.541Z,82.88
2023-05-28T02:57:55.301Z,83.53
2023-05-28T03:00:28.437Z,83.16
2023-05-28T03:03:01.770Z,82.54
2023-05-28T03:05:34.986Z,82.78
2023-05-28T03:08:08.080Z,82.98
2023-05-28T03:10:41.181Z,82.91
2023-05-28T03:13:15.623Z,83.41
2023-05-28T03:15:48.722Z,84.14
2023-05-28T03:18:21.791Z,82.18
2023-05-28T03:20:55.008Z,82.50
2023-05-28T03:23:28.082Z,83.22
2023-05-28T03:26:01.148Z,83.86
2023-05-28T03:28:35.659Z,84.35
2023-05-28T03:31:08.749Z,84.46
2023-05-28T03:33:41.848Z,84.55
2023-05-28T03:36:14.874Z,83.25
2023-05-28T03:38:48.147Z,83.94
2023-05-28T03:41:21.485Z,83.15
2023-05-28T03:43:55.848Z,83.73
2023-05-28T03:46:28.990Z,83.53
2023-05-28T03:49:02.150Z,83.85
2023-05-28T03:51:35.371Z,84.11
2023-05-28T03:54:08.474Z,83.77
2023-05-28T03:56:41.721Z,84.31
2023-05-28T03:59:16.160Z,84.52
2023-05-28T04:01:49.247Z,84.74
2023-05-28T04:04:22.581Z,84.35
2023-05-28T04:06:55.795Z,84.28
2023-05-28T04:09:29.089Z,84.33
2023-05-28T04:12:03.972Z,82.90
2023-05-28T04:14:38.363Z,83.04
2023-05-28T04:17:13.856Z,82.15
2023-05-28T04:19:46.946Z,81.63
2023-05-28T04:22:19.974Z,81.72
2023-05-28T04:24:56.658Z,80.95
2023-05-28T04:27:29.775Z,79.84
2023-05-28T04:30:04.485Z,81.24
2023-05-28T04:32:40.271Z,80.80
2023-05-28T04:35:13.713Z,80.12
2023-05-28T04:37:46.905Z,79.92
2023-05-28T04:40:19.983Z,80.65
2023-05-28T04:42:54.896Z,79.76
2023-05-28T04:45:29.348Z,79.08
2023-05-28T04:48:03.232Z,79.30
2023-05-28T04:50:37.604Z,79.71
2023-05-28T04:53:10.639Z,78.33
2023-05-28T04:55:43.830Z,77.02
2023-05-28T04:58:16.942Z,76.37
2023-05-28T05:00:52.226Z,74.67
2023-05-28T05:03:25.451Z,72.51
2023-05-28T05:05:58.640Z,71.26
2023-05-28T05:08:31.943Z,69.51
2023-05-28T05:11:07.551Z,68.63
2023-05-28T05:13:40.905Z,68.82
2023-05-28T05:16:15.430Z,68.72
2023-05-28T05:18:48.688Z,66.10
2023-05-28T05:21:22.342Z,63.73
2023-05-28T05:23:55.533Z,61.79
2023-05-28T05:26:28.643Z,60.08
2023-05-28T05:29:01.792Z,58.47
2023-05-28T05:31:36.413Z,56.98
2023-05-28T05:34:09.580Z,56.17
2023-05-28T05:36:42.714Z,55.05
2023-05-28T05:39:16.109Z,54.98
2023-05-28T05:41:49.223Z,53.14
2023-05-28T05:44:22.944Z,52.11
2023-05-28T05:46:57.612Z,50.94
2023-05-28T05:49:30.761Z,50.60
2023-05-28T05:52:03.868Z,49.80
2023-05-28T05:54:36.992Z,50.55
2023-05-28T05:57:11.056Z,49.69
2023-05-28T05:59:44.350Z,48.58
2023-05-28T06:02:19.097Z,46.91
2023-05-28T06:04:52.964Z,46.17
2023-05-28T06:07:26.199Z,45.33
2023-05-28T06:09:59.423Z,44.75
2023-05-28T06:12:32.552Z,44.48
2023-05-28T06:15:07.671Z,43.50
2023-05-28T06:17:42.532Z,42.51
2023-05-28T06:20:16.247Z,42.68
2023-05-28T06:22:49.467Z,41.80
2023-05-28T06:25:23.467Z,40.69
2023-05-28T06:27:56.912Z,40.22
2023-05-28T06:30:30.543Z,39.09
2023-05-28T06:33:05.192Z,39.67
2023-05-28T06:35:38.545Z,38.18
2023-05-28T06:38:11.749Z,37.55
2023-05-28T06:44:29.606Z,36.48
2023-05-28T06:47:02.856Z,36.13
2023-05-28T06:49:37.539Z,35.47
2023-05-28T06:52:10.754Z,36.63
2023-05-28T06:54:43.941Z,37.00
2023-05-28T06:57:17.064Z,36.33
2023-05-28T06:59:50.212Z,35.28
2023-05-28T07:02:23.291Z,35.67
2023-05-28T07:04:57.913Z,34.67
2023-05-28T07:07:31.368Z,34.68
2023-05-28T07:10:05.183Z,34.31
2023-05-28T07:12:38.397Z,34.55
2023-05-28T07:15:12.554Z,33.06
2023-05-28T07:17:59.828Z,33.76
2023-05-28T07:20:34.449Z,33.21
2023-05-28T07:23:07.724Z,31.81
2023-05-28T07:25:42.696Z,31.69
2023-05-28T07:28:15.951Z,31.11
2023-05-28T07:30:49.140Z,32.48
2023-05-28T07:33:22.341Z,32.72
2023-05-28T07:35:57.364Z,32.05
2023-05-28T07:38:30.521Z,32.28
2023-05-28T07:41:03.671Z,30.91
2023-05-28T07:43:36.883Z,30.77
2023-05-28T07:46:10.099Z,30.99
2023-05-28T07:48:44.603Z,30.34
2023-05-28T07:51:19.647Z,30.52
2023-05-28T07:53:53.038Z,29.67
2023-05-28T07:56:27.318Z,28.23
2023-05-28T07:59:00.487Z,28.62
2023-05-28T08:01:35.412Z,29.65
2023-05-28T08:04:08.751Z,29.46
2023-05-28T08:06:43.472Z,29.18
2023-05-28T08:09:18.647Z,29.01
2023-05-28T08:11:52.141Z,29.30
2023-05-28T08:14:25.493Z,29.91
2023-05-28T08:16:58.771Z,29.82
2023-05-28T08:19:32.048Z,29.92
2023-05-28T08:22:07.702Z,30.95
2023-05-28T08:24:41.204Z,30.87
2023-05-28T08:27:14.449Z,30.57
2023-05-28T08:29:48.125Z,30.47
2023-05-28T08:32:21.643Z,30.80
2023-05-28T08:34:54.978Z,30.86
2023-05-28T08:37:29.530Z,31.75
2023-05-28T08:40:02.736Z,31.53
2023-05-28T08:42:36.098Z,32.03
2023-05-28T08:45:10.378Z,35.06
2023-05-28T08:47:44.786Z,33.25
2023-05-28T08:50:18.339Z,31.37
2023-05-28T08:52:53.860Z,30.85
2023-05-28T08:55:27.054Z,31.94
2023-05-28T08:58:00.523Z,31.44
2023-05-28T09:00:33.931Z,31.58
2023-05-28T09:03:09.238Z,30.91
2023-05-28T09:05:42.719Z,30.07
2023-05-28T09:08:17.444Z,30.05
2023-05-28T09:10:50.640Z,31.00
2023-05-28T09:13:23.980Z,31.85
2023-05-28T09:15:58.659Z,31.53
2023-05-28T09:18:32.196Z,31.47
2023-05-28T09:21:11.875Z,31.19
2023-05-28T09:23:52.333Z,29.95
2023-05-28T09:26:28.685Z,31.19
2023-05-28T09:29:02.400Z,30.95
2023-05-28T09:31:35.618Z,30.91
2023-05-28T09:34:08.918Z,30.72
2023-05-28T09:36:42.855Z,31.20
2023-05-28T09:39:17.369Z,29.93
2023-05-28T09:42:01.517Z,30.24
2023-05-28T09:44:35.624Z,30.89
2023-05-28T09:47:16.012Z,31.26
2023-05-28T09:49:50.962Z,31.41
2023-05-28T09:52:25.220Z,30.09
2023-05-28T09:55:01.140Z,30.40
2023-05-28T09:57:36.112Z,30.56
2023-05-28T10:00:21.015Z,30.65
2023-05-28T10:03:12.610Z,31.14
2023-05-28T10:05:51.312Z,31.85
2023-05-28T10:08:27.005Z,30.84
2023-05-28T10:11:01.620Z,29.49
2023-05-28T10:13:34.931Z,29.86
2023-05-28T10:16:08.796Z,31.30
2023-05-28T10:18:44.229Z,30.54
2023-05-28T10:21:17.999Z,29.94
2023-05-28T10:23:51.584Z,31.02
2023-05-28T10:26:27.208Z,31.80
2023-05-28T10:29:01.177Z,32.65
2023-05-28T10:31:34.406Z,33.10
2023-05-28T10:34:18.001Z,31.57
2023-05-28T10:37:03.344Z,30.92
2023-05-28T10:39:41.589Z,29.57
2023-05-28T10:42:19.739Z,29.55
2023-05-28T10:45:07.727Z,28.91
2023-05-28T10:47:44.187Z,28.91
2023-05-28T10:50:20.163Z,29.15
2023-05-28T10:53:08.039Z,29.43
2023-05-28T10:55:52.824Z,31.16
2023-05-28T10:58:29.309Z,30.89
2023-05-28T11:01:06.463Z,31.25
2023-05-28T11:03:45.101Z,30.99
2023-05-28T11:06:19.303Z,30.80
2023-05-28T11:08:52.535Z,30.41
2023-05-28T11:11:28.279Z,31.28
2023-05-28T11:14:04.070Z,29.69
2023-05-28T11:16:37.341Z,30.31
2023-05-28T11:19:11.597Z,30.80
2023-05-28T11:21:54.761Z,31.29
2023-05-28T11:24:27.973Z,30.55
2023-05-28T11:27:01.200Z,31.25
2023-05-28T11:29:35.717Z,29.59
2023-05-28T11:32:09.290Z,29.17
2023-05-28T11:34:42.574Z,29.86
2023-05-28T11:37:15.851Z,30.32
2023-05-28T11:39:52.676Z,31.97
2023-05-28T11:42:27.420Z,31.08
2023-05-28T11:45:01.939Z,31.80
2023-05-28T11:47:36.820Z,31.26
2023-05-28T11:50:12.204Z,29.23
2023-05-28T11:52:46.164Z,29.68
2023-05-28T11:55:20.149Z,29.70
2023-05-28T11:57:56.450Z,29.48
2023-05-28T12:00:36.627Z,29.88
2023-05-28T12:03:13.083Z,29.95
2023-05-28T12:05:46.728Z,30.16
2023-05-28T12:08:21.672Z,29.68
2023-05-28T12:10:55.126Z,29.69
2023-05-28T12:13:34.375Z,30.34
2023-05-28T12:16:10.499Z,30.11
2023-05-28T12:18:44.159Z,31.44
2023-05-28T12:21:21.467Z,29.78
2023-05-28T12:23:56.238Z,29.89
2023-05-28T12:26:30.305Z,30.36
2023-05-28T12:29:03.541Z,29.72
2023-05-28T12:31:38.218Z,29.85
2023-05-28T12:34:11.381Z,29.61
2023-05-28T12:36:44.710Z,29.15
2023-05-28T12:39:17.857Z,27.83
2023-05-28T12:41:51.024Z,27.83
2023-05-28T12:44:24.179Z,28.09
2023-05-28T12:46:58.808Z,27.90
2023-05-28T12:49:32.006Z,28.59
2023-05-28T12:52:05.663Z,27.84
2023-05-28T12:54:38.825Z,26.45
2023-05-28T12:57:12.980Z,26.39
2023-05-28T12:59:46.348Z,25.45
2023-05-28T13:02:21.290Z,26.01
2023-05-28T13:04:54.780Z,28.45
2023-05-28T13:07:28.526Z,28.84
2023-05-28T13:10:01.738Z,27.77
2023-05-28T13:12:37.840Z,26.86
2023-05-28T13:15:12.436Z,28.31
2023-05-28T13:17:47.389Z,29.09
2023-05-28T13:20:20.928Z,28.45
2023-05-28T13:22:54.148Z,27.19
2023-05-28T13:25:27.339Z,25.92
2023-05-28T13:28:02.898Z,25.63
2023-05-28T13:30:36.373Z,29.01
2023-05-28T13:33:11.003Z,28.74
2023-05-28T13:35:44.207Z,24.87
2023-05-28T13:38:18.022Z,25.49
2023-05-28T13:40:51.218Z,28.69
2023-05-28T13:43:24.502Z,29.78
2023-05-28T13:45:57.715Z,30.19
2023-05-28T13:48:32.449Z,30.48
2023-05-28T13:51:06.857Z,29.83
2023-05-28T13:53:40.388Z,30.06
2023-05-28T13:56:13.698Z,29.82
2023-05-28T13:58:46.880Z,30.59
2023-05-28T14:01:20.195Z,31.28
2023-05-28T14:03:54.991Z,30.92
2023-05-28T14:06:28.454Z,31.06
2023-05-28T14:09:01.674Z,30.78
2023-05-28T14:12:03.941Z,31.33
2023-05-28T14:14:28.124Z,31.01
2023-05-28T14:17:01.598Z,32.32
2023-05-28T14:19:36.348Z,31.41
2023-05-28T14:22:09.666Z,30.95
2023-05-28T14:24:42.840Z,31.85
2023-05-28T14:27:16.154Z,32.21
2023-05-28T14:29:49.325Z,31.27
2023-05-28T14:32:22.716Z,30.83
2023-05-28T14:34:57.486Z,30.70
2023-05-28T14:37:30.788Z,29.93
2023-05-28T14:40:05.637Z,29.71
2023-05-28T14:42:38.833Z,29.97
2023-05-28T14:45:12.468Z,31.22
2023-05-28T14:47:45.695Z,31.08
2023-05-28T14:50:21.033Z,30.79
2023-05-28T14:52:54.257Z,28.98
2023-05-28T14:55:27.598Z,30.06
2023-05-28T14:58:00.741Z,29.83
2023-05-28T15:00:33.925Z,30.74
2023-05-28T15:03:07.144Z,29.81
2023-05-28T15:05:41.745Z,30.45
2023-05-28T15:08:15.609Z,29.84
2023-05-28T15:10:48.893Z,30.23
2023-05-28T15:13:22.143Z,30.85
2023-05-28T15:15:55.617Z,31.10
2023-05-28T15:18:29.011Z,31.03
2023-05-28T15:21:03.684Z,31.13
2023-05-28T15:23:37.220Z,31.32
2023-05-28T15:26:10.849Z,30.56
2023-05-28T15:28:44.971Z,31.02
2023-05-28T15:31:21.493Z,31.31
2023-05-28T15:33:55.037Z,31.45
2023-05-28T15:36:31.901Z,31.03
2023-05-28T15:39:05.695Z,31.19
2023-05-28T15:41:39.355Z,31.31
2023-05-28T15:44:13.144Z,30.50
2023-05-28T15:46:46.663Z,31.86
2023-05-28T15:49:19.881Z,31.12
2023-05-28T15:51:54.583Z,31.16
2023-05-28T15:54:28.220Z,31.03
2023-05-28T15:57:01.918Z,31.34
2023-05-28T15:59:35.272Z,30.80
2023-05-28T16:02:09.776Z,31.56
2023-05-28T16:04:43.202Z,31.53
2023-05-28T16:07:18.239Z,31.65
2023-05-28T16:09:51.665Z,31.53
2023-05-28T16:12:26.541Z,31.38
2023-05-28T16:15:03.792Z,31.39
2023-05-28T16:17:40.243Z,30.60
2023-05-28T16:20:14.300Z,30.78
2023-05-28T16:22:49.574Z,30.34
2023-05-28T16:25:24.312Z,30.60
2023-05-28T16:27:57.738Z,31.05
2023-05-28T16:30:31.589Z,30.85
2023-05-28T16:33:05.610Z,31.01
2023-05-28T16:35:40.097Z,30.04
2023-05-28T16:38:15.227Z,30.60
2023-05-28T16:40:49.091Z,30.12
2023-05-28T16:43:23.179Z,31.27
2023-05-28T16:45:59.657Z,31.12
2023-05-28T16:48:34.350Z,31.03
2023-05-28T16:51:10.468Z,30.90
2023-05-28T16:53:45.199Z,31.41
2023-05-28T16:56:18.673Z,31.54
2023-05-28T16:58:51.978Z,30.79
2023-05-28T17:01:25.646Z,30.78
2023-05-28T17:03:58.948Z,30.69
2023-05-28T17:06:32.232Z,31.18
2023-05-28T17:09:09.806Z,31.61
2023-05-28T17:11:42.979Z,31.23
2023-05-28T17:14:16.810Z,31.04
2023-05-28T17:16:50.100Z,31.29
2023-05-28T17:19:23.687Z,31.60
2023-05-28T17:21:57.168Z,31.79
2023-05-28T17:24:31.748Z,30.84
2023-05-28T17:27:06.182Z,30.87
2023-05-28T17:29:39.326Z,30.97
2023-05-28T17:32:12.663Z,30.54
2023-05-28T17:34:45.990Z,31.11
2023-05-28T17:37:19.371Z,31.30
2023-05-28T17:39:54.404Z,31.14
2023-05-28T17:42:28.817Z,31.12
2023-05-28T17:45:02.453Z,31.35
2023-05-28T17:47:35.732Z,31.58
2023-05-28T17:50:10.983Z,31.81
2023-05-28T17:52:44.344Z,31.85
2023-05-28T17:55:19.128Z,32.08
2023-05-28T17:57:52.397Z,32.10
2023-05-28T18:00:25.606Z,32.71
2023-05-28T18:02:59.471Z,33.05
2023-05-28T18:05:33.257Z,33.67
2023-05-28T18:08:06.629Z,34.08
2023-05-28T18:10:41.785Z,35.12
2023-05-28T18:13:15.084Z,35.16
2023-05-28T18:15:49.378Z,35.51
2023-05-28T18:18:22.592Z,35.96
2023-05-28T18:20:56.147Z,35.93
2023-05-28T18:23:31.094Z,37.03
2023-05-28T18:26:06.337Z,36.82
2023-05-28T18:28:39.605Z,37.20
2023-05-28T18:31:12.950Z,37.45
2023-05-28T18:33:46.208Z,37.54
2023-05-28T18:36:19.392Z,37.95
2023-05-28T18:38:52.950Z,39.35
2023-05-28T18:41:27.555Z,39.46
2023-05-28T18:44:01.731Z,39.97
2023-05-28T18:46:35.238Z,40.58
2023-05-28T18:49:08.446Z,41.33
2023-05-28T18:51:41.637Z,42.00
2023-05-28T18:54:15.629Z,42.62
2023-05-28T18:56:50.317Z,42.88
2023-05-28T18:59:23.564Z,43.42
2023-05-28T19:01:57.060Z,43.73
2023-05-28T19:04:30.273Z,43.87
2023-05-28T19:07:04.214Z,44.30
2023-05-28T19:09:37.461Z,45.31
2023-05-28T19:12:11.969Z,45.25
2023-05-28T19:14:45.092Z,44.20
2023-05-28T19:17:18.293Z,44.04
2023-05-28T19:19:51.511Z,45.23
2023-05-28T19:22:24.768Z,45.34
2023-05-28T19:24:59.781Z,46.22
2023-05-28T19:27:34.313Z,46.59
2023-05-28T19:30:09.637Z,47.93
2023-05-28T19:32:42.829Z,48.87
2023-05-28T19:35:16.457Z,50.19
2023-05-28T19:37:51.564Z,50.87
2023-05-28T19:40:24.709Z,51.21
2023-05-28T19:42:59.262Z,51.02
2023-05-28T19:45:33.301Z,51.42
2023-05-28T19:48:06.712Z,51.70
2023-05-28T19:50:40.160Z,52.26
2023-05-28T19:53:13.565Z,52.21
2023-05-28T19:55:46.727Z,52.02
2023-05-28T19:58:22.390Z,52.63
2023-05-28T20:00:56.055Z,53.15
2023-05-28T20:03:29.346Z,54.56
2023-05-28T20:06:02.572Z,54.82
2023-05-28T20:08:35.862Z,55.18
2023-05-28T20:11:09.326Z,55.75
2023-05-28T20:13:44.074Z,55.83
2023-05-28T20:16:18.681Z,56.26
2023-05-28T20:18:55.881Z,56.25
2023-05-28T20:21:32.264Z,56.60
2023-05-28T20:24:06.061Z,56.81
2023-05-28T20:26:39.506Z,57.40
2023-05-28T20:29:15.287Z,57.73
2023-05-28T20:31:48.617Z,57.55
2023-05-28T20:34:21.884Z,57.73
2023-05-28T20:36:55.746Z,58.82
2023-05-28T20:39:30.026Z,58.71
2023-05-28T20:42:04.200Z,59.16
2023-05-28T20:44:38.803Z,58.73
2023-05-28T20:47:12.559Z,59.75
2023-05-28T20:49:45.854Z,60.51
2023-05-28T20:52:19.132Z,60.43
2023-05-28T20:54:52.496Z,61.06
2023-05-28T20:57:44.746Z,60.63
2023-05-28T21:00:22.590Z,61.22
2023-05-28T21:02:59.015Z,61.74
2023-05-28T21:05:32.441Z,62.34
2023-05-28T21:08:05.964Z,62.90
2023-05-28T21:10:40.645Z,63.54
2023-05-28T21:13:14.472Z,64.20
2023-05-28T21:15:49.240Z,63.69
2023-05-28T21:18:22.460Z,64.28
2023-05-28T21:20:57.356Z,63.87
2023-05-28T21:23:31.236Z,64.60
2023-05-28T21:26:04.435Z,64.88
2023-05-28T21:28:37.711Z,65.69
2023-05-28T21:31:12.372Z,66.31
2023-05-28T21:33:45.618Z,67.26
2023-05-28T21:36:18.845Z,67.13
2023-05-28T21:38:52.040Z,67.47
2023-05-28T21:41:25.194Z,66.80
2023-05-28T21:43:58.399Z,66.71
2023-05-28T21:46:33.038Z,66.76
2023-05-28T21:49:06.331Z,66.88
2023-05-28T21:51:39.894Z,67.38
2023-05-28T21:54:13.069Z,67.85
2023-05-28T21:56:46.257Z,68.20
2023-05-28T21:59:20.664Z,68.35
2023-05-28T22:01:55.231Z,68.74
2023-05-28T22:04:28.451Z,68.81
2023-05-28T22:07:01.700Z,68.77
2023-05-28T22:09:34.924Z,69.11
2023-05-28T22:12:09.052Z,70.06
2023-05-28T22:14:42.241Z,70.21
2023-05-28T22:17:19.210Z,70.50
2023-05-28T22:19:52.644Z,70.84
2023-05-28T22:22:25.905Z,71.53
2023-05-28T22:24:59.106Z,71.27
2023-05-28T22:27:32.325Z,71.23
2023-05-28T22:30:07.042Z,71.28
2023-05-28T22:32:41.628Z,71.35
2023-05-28T22:35:14.819Z,72.10
2023-05-28T22:37:49.127Z,71.09
2023-05-28T22:40:22.472Z,71.93
2023-05-28T22:42:55.607Z,71.30
2023-05-28T22:45:28.786Z,72.03
2023-05-28T22:48:05.850Z,72.95
2023-05-28T22:50:39.095Z,72.47
2023-05-28T22:53:12.561Z,73.13
2023-05-28T22:55:46.129Z,73.11
2023-05-28T22:58:19.257Z,72.99
2023-05-28T23:00:52.406Z,72.98
2023-05-28T23:03:27.550Z,72.59
2023-05-28T23:06:00.784Z,72.78
2023-05-28T23:08:33.874Z,72.45
2023-05-28T23:11:07.878Z,73.78
2023-05-28T23:13:41.006Z,75.16
2023-05-28T23:16:14.602Z,73.92
2023-05-28T23:18:51.073Z,74.65
2023-05-28T23:21:24.695Z,74.10
2023-05-28T23:23:58.202Z,75.11
2023-05-28T23:26:31.375Z,75.27
2023-05-28T23:29:05.196Z,74.66
2023-05-28T23:31:38.412Z,74.13
2023-05-28T23:34:13.677Z,74.11
2023-05-28T23:36:48.982Z,73.97
2023-05-28T23:39:23.801Z,74.57
2023-05-28T23:41:57.583Z,74.52
2023-05-28T23:44:31.219Z,74.43
2023-05-28T23:47:04.751Z,75.12
2023-05-28T23:49:39.285Z,75.14
2023-05-28T23:52:12.400Z,74.76
2023-05-28T23:54:45.570Z,75.70
2023-05-28T23:57:18.846Z,75.46
2023-05-28T23:59:51.967Z,74.48
